Meteo Giornale » Osservazioni meteo Gran Bretagna » Liverpool

ore: 16:20 - Osservazioni Meteo Liverpool
Lat. 53° 20' N Lon. 2° 51' W Alt. 26 metri s.l.m.

molto_nuvoloso Europe/London

22 °C

Molto Nuvoloso

Temp. 24 Ore

12 °C

23 °C

Ovest/Nord-Ovest

25.9 Km/h

Dew point 17 °C

Umidità 73 %

Visibilità  10 Km

Il sole sorge alle ore 06:59

Il sole tramonta alle ore 19:07

Data e Ora Cielo e Fenomeni T °C DP °C Um. % Pres. hPa Vis. km Vento km/h
Oggi h: 16:20 molto_nuvoloso Molto Nuvoloso 22 17 73 1013 10 O/NO 25.9
Oggi h: 15:50 nuvoloso Nuvoloso 21 16 73 1013 10 O 24
Oggi h: 15:20 nuvoloso Nuvoloso 22 16 68 1013 10 O 33.3
Oggi h: 14:50 nuvoloso Nuvoloso 23 17 68 1013 10 O 37
Oggi h: 13:50 nuvoloso Nuvoloso 23 16 64 1013 10 O 27.8
Oggi h: 13:20 nuvoloso Nuvoloso 23 17 68 1013 10 O 29.6
Oggi h: 12:50 nuvoloso Nuvoloso 22 17 73 1013 10 O 25.9
Oggi h: 12:20 nuvoloso Nuvoloso 20 17 82 1013 10 O/SO 20.3
Oggi h: 11:50 coperto Coperto 19 16 82 1014 10 O/SO 22.2
Oggi h: 11:20 coperto Coperto 19 16 82 1014 10 O/SO 18.5
Oggi h: 10:50 coperto Coperto 18 15 82 1013 10 O/SO 16.7
Oggi h: 10:20 coperto Coperto 18 15 82 1013 10 SO 11.1
Oggi h: 09:50 molto_nuvoloso Molto Nuvoloso 17 14 82 1013 10 SO 11.1
Oggi h: 09:20 molto_nuvoloso Rovescio nelle Vicinanze 17 14 82 1013 10 S/SO 14.8
Oggi h: 08:20 molto_nuvoloso Rovescio nelle Vicinanze 14 12 87 1013 10 S 9.3
Oggi h: 07:50 nuvoloso Nuvoloso 14 12 87 1013 10 S 11.1
Oggi h: 07:20 nuvoloso Nuvoloso 14 12 87 1013 10 S 11.1
Oggi h: 06:50 nuvoloso Nuvoloso 14 12 87 1014 10 S 9.3
Oggi h: 06:20 sereno Sereno 13 11 87 1014 10 S 13
Oggi h: 05:20 sereno Sereno 12 11 93 1014 10 S 13
Oggi h: 04:50 sereno Sereno 12 11 93 1015 10 S 9.3
Oggi h: 04:20 nuvoloso Nuvoloso 13 11 87 1015 10 S 11.1
Oggi h: 03:50 sereno Sereno 13 12 93 1015 10 S 14.8
Oggi h: 03:20 sereno Sereno 13 12 93 1015 10 S/SO 14.8
Oggi h: 02:50 sereno Sereno 13 12 93 1016 10 S 14.8
Oggi h: 02:20 sereno Sereno 13 11 87 1016 10 S 9.3
Oggi h: 01:50 sereno Sereno 13 11 87 1016 10 S 7.4
Oggi h: 01:20 sereno Sereno 14 12 87 1017 10 S 9.3
Oggi h: 00:50 sereno Sereno 13 12 93 1017 10 S/SO 13
Oggi h: 00:20 sereno Sereno 14 12 87 1017 10 S 9.3
Ieri h: 23:50 sereno Sereno 14 12 87 1018 10 N 5.5
Ieri h: 22:50 nuvoloso Nuvoloso 13 11 87 1018 10 N 3.7
Ieri h: 22:20 poco_nuvoloso Poco Nuvoloso 14 12 87 1018 10 N 3.7
Ieri h: 21:20 nuvoloso Nuvoloso 15 13 87 1019 10 SO 11.1
Ieri h: 20:50 nuvoloso Nuvoloso 14 12 87 1019 10 O/SO 13
Ieri h: 20:20 sereno Sereno 16 13 82 1019 10 O/NO 14.8
Ieri h: 19:50 poco_nuvoloso Poco Nuvoloso 16 13 82 1018 10 O 14.8
Ieri h: 19:20 poco_nuvoloso Poco Nuvoloso 16 13 82 1018 10 O/NO 20.3
Ieri h: 18:50 poco_nuvoloso Poco Nuvoloso 16 13 82 1019 10 O/NO 18.5
Ieri h: 18:20 poco_nuvoloso Poco Nuvoloso 16 12 77 1019 10 O/NO 18.5
Ieri h: 17:50 poco_nuvoloso Poco Nuvoloso 16 12 77 1019 10 O/NO 24
Ieri h: 17:20 poco_nuvoloso Poco Nuvoloso 16 12 77 1019 10 O/NO 24
Ieri h: 16:50 molto_nuvoloso Molto Nuvoloso 16 12 77 1019 10 O/NO 20.3